Terminal Aerodrome Forecast
Issued by NWS Shreveport, LA

Home | Current Version | Previous Version | Text Only | Print | Product List | Glossary On
Versions: 1 2 3 4 5 6 7 8 9 10 11 12 13 14 15
597
FTUS44 KSHV 221138
TAFTYR
TAF
KTYR 221138Z 2212/2312 05009KT P6SM -RA SCT009 OVC090
      TEMPO 2213/2215 BKN020
     FM221500 34011KT P6SM BKN020
     FM222000 34012KT P6SM SCT025
     FM230000 34007KT P6SM SKC
     FM230600 33004KT P6SM SKC=

USA.gov is the U.S. government's official web portal to all federal, state and local government web resources and services.